createdAt,value
2022-11-27T00:01:39.519Z,101291.78
2022-11-27T00:04:10.103Z,101302.75
2022-11-27T00:06:40.268Z,101292.09
2022-11-27T00:09:16.273Z,101298.19
2022-11-27T00:11:44.285Z,101307.59
2022-11-27T00:14:14.772Z,101302.44
2022-11-27T00:16:42.432Z,101314.91
2022-11-27T00:19:11.478Z,101314.97
2022-11-27T00:21:39.036Z,101311.91
2022-11-27T00:24:08.677Z,101303.94
2022-11-27T00:26:38.160Z,101302.13
2022-11-27T00:29:07.096Z,101302.66
2022-11-27T00:31:37.559Z,101302.19
2022-11-27T00:34:08.809Z,101301.81
2022-11-27T00:36:37.648Z,101304.25
2022-11-27T00:39:05.715Z,101296.09
2022-11-27T00:41:33.451Z,101291.78
2022-11-27T00:44:00.653Z,101285.81
2022-11-27T00:46:31.727Z,101288.38
2022-11-27T00:49:02.995Z,101284.41
2022-11-27T00:51:31.013Z,101286.69
2022-11-27T00:53:58.651Z,101283.28
2022-11-27T00:56:33.961Z,101280.13
2022-11-27T00:59:01.624Z,101278.63
2022-11-27T01:01:37.017Z,101281.53
2022-11-27T01:04:07.931Z,101274.94
2022-11-27T01:06:35.408Z,101274.34
2022-11-27T01:09:03.723Z,101274.09
2022-11-27T01:11:34.563Z,101268.63
2022-11-27T01:14:14.228Z,101269.34
2022-11-27T01:16:43.342Z,101268.72
2022-11-27T01:19:13.416Z,101267.69
2022-11-27T01:21:41.004Z,101269.63
2022-11-27T01:24:10.864Z,101272.47
2022-11-27T01:26:38.075Z,101276.25
2022-11-27T01:29:05.267Z,101275.34
2022-11-27T01:31:34.468Z,101271.25
2022-11-27T01:34:13.290Z,101276.28
2022-11-27T01:36:41.017Z,101269.50
2022-11-27T01:39:08.301Z,101275.38
2022-11-27T01:41:39.924Z,101270.34
2022-11-27T01:44:25.537Z,101275.13
2022-11-27T01:47:07.464Z,101276.53
2022-11-27T01:49:44.236Z,101265.66
2022-11-27T01:52:32.841Z,101271.63
2022-11-27T01:55:20.333Z,101271.44
2022-11-27T01:57:56.627Z,101276.09
2022-11-27T02:00:24.907Z,101279.31
2022-11-27T02:02:52.498Z,101275.38
2022-11-27T02:05:26.117Z,101274.94
2022-11-27T02:07:54.282Z,101272.88
2022-11-27T02:10:28.487Z,101271.75
2022-11-27T02:13:14.089Z,101257.00
2022-11-27T02:16:35.928Z,101263.22
2022-11-27T02:19:59.017Z,101254.25
2022-11-27T02:22:46.910Z,101246.69
2022-11-27T02:26:01.314Z,101247.81
2022-11-27T02:29:09.467Z,101252.56
2022-11-27T02:31:54.604Z,101246.13
2022-11-27T02:34:45.902Z,101238.63
2022-11-27T02:37:28.834Z,101241.19
2022-11-27T02:40:04.054Z,101235.72
2022-11-27T02:43:19.283Z,101241.75
2022-11-27T02:45:52.610Z,101244.72
2022-11-27T02:48:29.635Z,101239.53
2022-11-27T02:50:57.175Z,101229.00
2022-11-27T02:53:37.867Z,101221.69
2022-11-27T02:56:17.073Z,101217.63
2022-11-27T02:58:48.029Z,101215.22
2022-11-27T03:01:18.507Z,101216.28
2022-11-27T03:03:52.144Z,101210.38
2022-11-27T03:06:44.389Z,101219.56
2022-11-27T03:09:26.241Z,101220.19
2022-11-27T03:11:53.928Z,101232.34
2022-11-27T03:14:24.474Z,101241.25
2022-11-27T03:17:15.621Z,101243.72
2022-11-27T03:20:22.060Z,101244.66
2022-11-27T03:22:49.281Z,101256.75
2022-11-27T03:25:16.693Z,101252.09
2022-11-27T03:28:10.938Z,101253.25
2022-11-27T03:30:40.677Z,101251.66
2022-11-27T03:33:08.401Z,101265.94
2022-11-27T03:35:35.569Z,101267.31
2022-11-27T03:38:03.086Z,101261.47
2022-11-27T03:41:00.873Z,101266.44
2022-11-27T03:43:35.848Z,101265.13
2022-11-27T03:46:29.681Z,101257.94
2022-11-27T03:49:45.213Z,101259.22
2022-11-27T03:52:47.636Z,101254.91
2022-11-27T03:56:13.719Z,101262.50
2022-11-27T03:58:58.880Z,101267.78
2022-11-27T04:01:27.579Z,101267.88
2022-11-27T04:03:54.851Z,101269.88
2022-11-27T04:06:22.078Z,101265.81
2022-11-27T04:08:49.557Z,101271.28
2022-11-27T04:11:17.004Z,101276.72
2022-11-27T04:13:44.249Z,101271.28
2022-11-27T04:16:11.679Z,101274.38
2022-11-27T04:18:38.918Z,101283.84
2022-11-27T04:21:06.237Z,101282.13
2022-11-27T04:23:33.392Z,101286.75
2022-11-27T04:26:00.692Z,101284.44
2022-11-27T04:28:27.955Z,101282.13
2022-11-27T04:30:55.111Z,101280.53
2022-11-27T04:33:23.124Z,101279.78
2022-11-27T04:35:51.710Z,101275.06
2022-11-27T04:38:20.834Z,101269.81
2022-11-27T04:40:48.430Z,101266.13
2022-11-27T04:43:15.611Z,101270.56
2022-11-27T04:45:44.300Z,101273.44
2022-11-27T04:48:11.593Z,101271.31
2022-11-27T04:50:39.061Z,101265.47
2022-11-27T04:53:06.462Z,101266.66
2022-11-27T04:55:35.207Z,101266.72
2022-11-27T04:58:02.414Z,101269.91
2022-11-27T05:00:29.652Z,101269.72
2022-11-27T05:02:57.040Z,101272.97
2022-11-27T05:05:24.349Z,101279.44
2022-11-27T05:07:51.565Z,101271.94
2022-11-27T05:10:18.789Z,101274.56
2022-11-27T05:12:45.908Z,101274.69
2022-11-27T05:15:13.096Z,101285.84
2022-11-27T05:17:40.244Z,101286.78
2022-11-27T05:20:08.556Z,101285.84
2022-11-27T05:22:35.735Z,101284.94
2022-11-27T05:25:03.188Z,101285.28
2022-11-27T05:27:30.417Z,101293.34
2022-11-27T05:29:57.645Z,101281.34
2022-11-27T05:32:25.025Z,101285.66
2022-11-27T05:34:52.324Z,101284.53
2022-11-27T05:37:20.147Z,101286.50
2022-11-27T05:39:47.759Z,101290.63
2022-11-27T05:42:15.024Z,101296.19
2022-11-27T05:44:42.590Z,101295.09
2022-11-27T05:47:10.027Z,101297.91
2022-11-27T05:49:38.458Z,101299.38
2022-11-27T05:52:05.628Z,101290.41
2022-11-27T05:54:32.935Z,101297.03
2022-11-27T05:57:00.095Z,101296.25
2022-11-27T05:59:27.292Z,101291.66
2022-11-27T06:01:54.535Z,101292.34
2022-11-27T06:04:21.922Z,101301.59
2022-11-27T06:06:49.127Z,101293.44
2022-11-27T06:09:16.297Z,101303.56
2022-11-27T06:11:43.591Z,101299.53
2022-11-27T06:14:11.521Z,101288.63
2022-11-27T06:16:38.944Z,101294.66
2022-11-27T06:19:06.315Z,101297.16
2022-11-27T06:21:33.479Z,101301.06
2022-11-27T06:24:00.749Z,101301.75
2022-11-27T06:26:31.882Z,101308.81
2022-11-27T06:29:01.121Z,101312.91
2022-11-27T06:31:32.405Z,101302.75
2022-11-27T06:34:00.613Z,101306.22
2022-11-27T06:36:34.469Z,101298.22
2022-11-27T06:39:04.930Z,101305.94
2022-11-27T06:41:33.404Z,101300.44
2022-11-27T06:44:01.989Z,101300.03
2022-11-27T06:46:30.127Z,101301.84
2022-11-27T06:48:59.416Z,101302.06
2022-11-27T06:51:31.589Z,101298.66
2022-11-27T06:54:02.631Z,101286.22
2022-11-27T06:56:32.228Z,101291.94
2022-11-27T06:59:01.613Z,101291.38
2022-11-27T07:01:31.182Z,101300.91
2022-11-27T07:03:59.045Z,101299.78
2022-11-27T07:06:28.153Z,101289.75
2022-11-27T07:08:56.728Z,101294.19
2022-11-27T07:11:28.485Z,101288.88
2022-11-27T07:14:01.421Z,101286.22
2022-11-27T07:16:32.543Z,101288.81
2022-11-27T07:19:05.447Z,101284.69
2022-11-27T07:21:33.545Z,101294.50
2022-11-27T07:24:01.602Z,101300.16
2022-11-27T07:26:30.772Z,101303.25
2022-11-27T07:28:58.733Z,101307.19
2022-11-27T07:31:30.037Z,101312.78
2022-11-27T07:33:58.312Z,101321.09
2022-11-27T07:36:29.886Z,101325.88
2022-11-27T07:38:58.189Z,101324.38
2022-11-27T07:41:32.240Z,101327.84
2022-11-27T07:44:00.880Z,101327.84
2022-11-27T07:46:30.049Z,101333.34
2022-11-27T07:48:57.338Z,101324.69
2022-11-27T07:51:24.590Z,101325.06
2022-11-27T07:53:51.960Z,101323.16
2022-11-27T07:56:20.273Z,101314.25
2022-11-27T07:58:48.517Z,101320.22
2022-11-27T08:01:19.171Z,101324.09
2022-11-27T08:03:46.971Z,101309.38
2022-11-27T08:06:24.217Z,101308.22
2022-11-27T08:08:52.702Z,101317.25
2022-11-27T08:11:30.065Z,101318.81
2022-11-27T08:14:04.909Z,101323.13
2022-11-27T08:16:34.032Z,101322.41
2022-11-27T08:19:01.786Z,101313.59
2022-11-27T08:21:30.484Z,101302.66
2022-11-27T08:23:58.412Z,101300.22
2022-11-27T08:26:27.763Z,101294.47
2022-11-27T08:28:56.854Z,101302.66
2022-11-27T08:31:25.878Z,101300.53
2022-11-27T08:33:53.167Z,101295.66
2022-11-27T08:36:20.712Z,101290.44
2022-11-27T08:38:48.025Z,101287.91
2022-11-27T08:41:15.265Z,101293.09
2022-11-27T08:43:42.460Z,101292.41
2022-11-27T08:46:10.706Z,101295.59
2022-11-27T08:48:38.278Z,101289.63
2022-11-27T08:51:13.075Z,101293.06
2022-11-27T08:53:41.191Z,101288.75
2022-11-27T08:56:24.726Z,101283.66
2022-11-27T08:58:52.818Z,101286.06
2022-11-27T09:01:30.591Z,101278.72
2022-11-27T09:03:58.331Z,101276.63
2022-11-27T09:06:30.030Z,101280.34
2022-11-27T09:08:59.972Z,101271.44
2022-11-27T09:11:29.754Z,101278.06
2022-11-27T09:13:59.010Z,101265.44
2022-11-27T09:16:26.338Z,101256.66
2022-11-27T09:18:54.174Z,101266.53
2022-11-27T09:21:27.148Z,101268.94
2022-11-27T09:24:01.504Z,101265.84
2022-11-27T09:26:30.183Z,101267.59
2022-11-27T09:28:59.023Z,101262.28
2022-11-27T09:31:26.602Z,101255.81
2022-11-27T09:33:53.985Z,101253.75
2022-11-27T09:36:25.332Z,101252.66
2022-11-27T09:38:53.791Z,101252.13
2022-11-27T09:41:52.234Z,101252.28
2022-11-27T09:44:46.340Z,101249.44
2022-11-27T09:47:42.040Z,101243.47
2022-11-27T09:50:31.057Z,101254.16
2022-11-27T09:53:25.322Z,101246.34
2022-11-27T09:55:56.680Z,101246.88
2022-11-27T09:58:41.013Z,101246.84
2022-11-27T10:01:34.932Z,101229.63
2022-11-27T10:04:12.927Z,101237.16
2022-11-27T10:07:00.555Z,101240.13
2022-11-27T10:09:51.783Z,101243.72
2022-11-27T10:13:39.409Z,101228.56
2022-11-27T10:16:44.032Z,101224.50
2022-11-27T10:19:26.433Z,101225.72
2022-11-27T10:22:37.944Z,101231.41
2022-11-27T10:25:38.471Z,101233.09
2022-11-27T10:28:50.969Z,101223.94
2022-11-27T10:31:53.536Z,101212.72
2022-11-27T10:34:34.017Z,101211.16
2022-11-27T10:37:08.880Z,101208.53
2022-11-27T10:39:58.672Z,101207.00
2022-11-27T10:42:51.243Z,101198.28
2022-11-27T10:45:59.076Z,101202.75
2022-11-27T10:48:28.408Z,101192.84
2022-11-27T10:50:56.768Z,101190.50
2022-11-27T10:53:29.877Z,101197.28
2022-11-27T10:56:12.470Z,101195.78
2022-11-27T10:59:06.885Z,101192.31
2022-11-27T11:01:48.518Z,101190.66
2022-11-27T11:04:41.755Z,101187.03
2022-11-27T11:07:29.157Z,101185.31
2022-11-27T11:09:56.966Z,101196.44
2022-11-27T11:12:24.629Z,101198.03
2022-11-27T11:15:00.632Z,101184.44
2022-11-27T11:17:40.764Z,101186.25
2022-11-27T11:20:21.737Z,101183.19
2022-11-27T11:22:50.021Z,101179.00
2022-11-27T11:25:21.168Z,101177.25
2022-11-27T11:27:51.358Z,101165.13
2022-11-27T11:30:29.547Z,101150.94
2022-11-27T11:33:04.265Z,101151.06
2022-11-27T11:35:36.787Z,101141.13
2022-11-27T11:38:15.896Z,101139.56
2022-11-27T11:40:46.655Z,101145.97
2022-11-27T11:43:35.664Z,101138.97
2022-11-27T11:46:19.231Z,101132.44
2022-11-27T11:49:24.667Z,101127.59
2022-11-27T11:52:51.758Z,101122.69
2022-11-27T11:56:00.646Z,101119.97
2022-11-27T11:58:59.716Z,101118.09
2022-11-27T12:01:56.415Z,101112.13
2022-11-27T12:04:41.041Z,101112.72
2022-11-27T12:07:57.822Z,101103.00
2022-11-27T12:11:10.416Z,101102.97
2022-11-27T12:14:14.280Z,101109.81
2022-11-27T12:17:05.531Z,101103.03
2022-11-27T12:20:24.454Z,101095.91
2022-11-27T12:23:20.855Z,101098.69
2022-11-27T12:26:30.026Z,101093.31
2022-11-27T12:29:33.218Z,101087.22
2022-11-27T12:32:21.113Z,101072.25
2022-11-27T12:34:55.284Z,101071.22
2022-11-27T12:38:16.404Z,101069.25
2022-11-27T12:41:37.077Z,101059.72
2022-11-27T12:44:29.540Z,101051.84
2022-11-27T12:47:25.901Z,101042.00
2022-11-27T12:50:04.467Z,101044.22
2022-11-27T12:52:54.139Z,101037.78
2022-11-27T12:55:29.411Z,101037.91
2022-11-27T12:58:16.856Z,101037.09
2022-11-27T13:00:44.249Z,101034.88
2022-11-27T13:04:02.580Z,101043.28
2022-11-27T13:06:38.756Z,101021.47
2022-11-27T13:09:16.792Z,101031.13
2022-11-27T13:11:44.609Z,101023.19
2022-11-27T13:14:25.774Z,101025.69
2022-11-27T13:17:05.022Z,101024.97
2022-11-27T13:19:46.016Z,101026.81
2022-11-27T13:22:27.342Z,101008.50
2022-11-27T13:24:56.623Z,101012.41
2022-11-27T13:27:30.804Z,101004.25
2022-11-27T13:30:08.633Z,101002.66
2022-11-27T13:32:51.333Z,100995.00
2022-11-27T13:35:42.618Z,100992.00
2022-11-27T13:38:38.154Z,100993.41
2022-11-27T13:41:06.980Z,100981.72
2022-11-27T13:43:44.348Z,100976.09
2022-11-27T13:46:27.358Z,100982.69
2022-11-27T13:49:05.194Z,100979.06
2022-11-27T13:51:38.241Z,100977.25
2022-11-27T13:54:22.293Z,100970.91
2022-11-27T13:56:51.913Z,100967.97
2022-11-27T13:59:25.537Z,100964.59
2022-11-27T14:02:03.260Z,100953.22
2022-11-27T14:04:33.121Z,100969.19
2022-11-27T14:07:08.016Z,100953.88
2022-11-27T14:09:55.656Z,100953.44
2022-11-27T14:12:31.076Z,100953.44
2022-11-27T14:15:07.891Z,100955.19
2022-11-27T14:17:47.732Z,100953.75
2022-11-27T14:20:18.015Z,100949.56
2022-11-27T14:23:13.538Z,100951.22
2022-11-27T14:25:41.613Z,100958.22
2022-11-27T14:28:25.926Z,100954.59
2022-11-27T14:31:00.121Z,100955.28
2022-11-27T14:33:47.546Z,100960.19
2022-11-27T14:36:30.672Z,100958.94
2022-11-27T14:38:58.969Z,100962.31
2022-11-27T14:41:29.138Z,100966.78
2022-11-27T14:44:06.717Z,100952.59
2022-11-27T14:46:37.326Z,100947.53
2022-11-27T14:49:04.924Z,100949.94
2022-11-27T14:51:35.784Z,100945.41
2022-11-27T14:54:18.895Z,100949.59
2022-11-27T14:56:46.508Z,100952.56
2022-11-27T14:59:21.020Z,100948.13
2022-11-27T15:02:17.831Z,100941.09
2022-11-27T15:04:46.824Z,100943.03
2022-11-27T15:07:48.014Z,100936.69
2022-11-27T15:10:37.871Z,100932.59
2022-11-27T15:13:08.773Z,100937.34
2022-11-27T15:15:44.337Z,100940.13
2022-11-27T15:18:22.746Z,100933.22
2022-11-27T15:20:51.234Z,100921.59
2022-11-27T15:23:26.581Z,100930.88
2022-11-27T15:26:29.419Z,100929.13
2022-11-27T15:28:59.723Z,100925.31
2022-11-27T15:31:37.916Z,100925.81
2022-11-27T15:34:16.165Z,100933.22
2022-11-27T15:36:48.782Z,100924.81
2022-11-27T15:39:35.433Z,100920.56
2022-11-27T15:42:09.567Z,100917.53
2022-11-27T15:44:38.284Z,100919.13
2022-11-27T15:47:19.009Z,100917.34
2022-11-27T15:49:46.297Z,100912.78
2022-11-27T15:52:13.564Z,100915.00
2022-11-27T15:54:40.994Z,100916.97
2022-11-27T15:57:08.422Z,100915.09
2022-11-27T15:59:35.657Z,100912.22
2022-11-27T16:02:03.423Z,100907.97
2022-11-27T16:04:31.476Z,100905.75
2022-11-27T16:06:58.826Z,100906.84
2022-11-27T16:09:26.056Z,100906.31
2022-11-27T16:11:53.503Z,100914.00
2022-11-27T16:14:20.699Z,100906.06
2022-11-27T16:16:48.055Z,100918.00
2022-11-27T16:19:16.947Z,100914.38
2022-11-27T16:21:44.520Z,100921.00
2022-11-27T16:24:14.708Z,100913.47
2022-11-27T16:26:42.762Z,100917.88
2022-11-27T16:29:10.605Z,100915.69
2022-11-27T16:31:37.973Z,100920.63
2022-11-27T16:34:06.504Z,100919.34
2022-11-27T16:36:34.247Z,100915.94
2022-11-27T16:39:02.660Z,100915.69
2022-11-27T16:41:30.847Z,100913.09
2022-11-27T16:43:58.327Z,100908.56
2022-11-27T16:46:30.908Z,100903.88
2022-11-27T16:49:00.696Z,100901.00
2022-11-27T16:51:33.880Z,100902.72
2022-11-27T16:54:05.780Z,100896.88
2022-11-27T16:56:35.180Z,100895.69
2022-11-27T16:59:14.507Z,100894.94
2022-11-27T17:01:42.629Z,100903.25
2022-11-27T17:04:20.139Z,100900.66
2022-11-27T17:06:49.811Z,100901.94
2022-11-27T17:09:17.752Z,100911.13
2022-11-27T17:11:50.750Z,100901.41
2022-11-27T17:14:20.369Z,100890.50
2022-11-27T17:16:49.094Z,100888.94
2022-11-27T17:19:17.712Z,100892.56
2022-11-27T17:21:45.904Z,100890.31
2022-11-27T17:24:16.310Z,100882.94
2022-11-27T17:26:48.282Z,100881.13
2022-11-27T17:29:19.319Z,100882.16
2022-11-27T17:31:46.846Z,100881.00
2022-11-27T17:34:16.379Z,100874.34
2022-11-27T17:36:46.309Z,100876.69
2022-11-27T17:39:15.487Z,100880.06
2022-11-27T17:41:45.066Z,100870.44
2022-11-27T17:44:13.475Z,100869.88
2022-11-27T17:46:41.294Z,100867.53
2022-11-27T17:49:08.705Z,100863.91
2022-11-27T17:51:36.904Z,100867.75
2022-11-27T17:54:05.911Z,100865.81
2022-11-27T17:56:34.805Z,100870.59
2022-11-27T17:59:02.690Z,100866.81
2022-11-27T18:01:30.873Z,100874.31
2022-11-27T18:04:01.204Z,100864.72
2022-11-27T18:06:31.850Z,100868.25
2022-11-27T18:09:00.302Z,100864.06
2022-11-27T18:11:33.725Z,100859.53
2022-11-27T18:14:01.479Z,100860.47
2022-11-27T18:16:37.667Z,100859.66
2022-11-27T18:19:11.056Z,100853.91
2022-11-27T18:21:39.574Z,100862.53
2022-11-27T18:24:24.619Z,100862.41
2022-11-27T18:27:11.305Z,100862.44
2022-11-27T18:29:42.486Z,100855.44
2022-11-27T18:32:12.441Z,100859.81
2022-11-27T18:34:40.975Z,100849.81
2022-11-27T18:37:08.859Z,100857.09
2022-11-27T18:39:37.173Z,100845.81
2022-11-27T18:42:06.117Z,100848.94
2022-11-27T18:44:37.304Z,100845.38
2022-11-27T18:47:11.124Z,100850.81
2022-11-27T18:49:41.397Z,100850.28
2022-11-27T18:52:09.448Z,100846.00
2022-11-27T18:54:37.337Z,100834.16
2022-11-27T18:57:06.984Z,100840.06
2022-11-27T18:59:34.897Z,100832.16
2022-11-27T19:02:03.927Z,100841.66
2022-11-27T19:04:31.300Z,100834.41
2022-11-27T19:06:58.604Z,100830.91
2022-11-27T19:09:26.366Z,100833.25
2022-11-27T19:11:54.143Z,100829.91
2022-11-27T19:14:21.423Z,100823.56
2022-11-27T19:16:48.936Z,100823.69
2022-11-27T19:22:09.339Z,100822.59
2022-11-27T19:24:38.118Z,100821.66
2022-11-27T19:27:05.517Z,100821.66
2022-11-27T19:29:32.823Z,100815.75
2022-11-27T19:32:01.026Z,100810.69
2022-11-27T19:34:28.703Z,100815.34
2022-11-27T19:36:58.122Z,100805.81
2022-11-27T19:39:27.063Z,100817.66
2022-11-27T19:41:54.783Z,100813.34
2022-11-27T19:44:22.160Z,100812.59
2022-11-27T19:46:49.344Z,100818.41
2022-11-27T19:49:18.630Z,100823.81
2022-11-27T19:51:46.537Z,100813.19
2022-11-27T19:54:16.597Z,100823.50
2022-11-27T19:56:44.087Z,100815.31
2022-11-27T19:59:13.154Z,100816.22
2022-11-27T20:01:42.563Z,100817.00
2022-11-27T20:04:12.660Z,100800.19
2022-11-27T20:06:40.972Z,100801.72
2022-11-27T20:09:08.876Z,100810.56
2022-11-27T20:11:36.544Z,100815.75
2022-11-27T20:14:07.289Z,100810.97
2022-11-27T20:16:36.555Z,100807.09
2022-11-27T20:19:05.955Z,100805.97
2022-11-27T20:21:36.700Z,100793.00
2022-11-27T20:24:04.900Z,100789.88
2022-11-27T20:26:37.138Z,100794.28
2022-11-27T20:29:07.545Z,100792.75
2022-11-27T20:31:37.806Z,100797.91
2022-11-27T20:34:08.513Z,100798.09
2022-11-27T20:36:39.201Z,100797.50
2022-11-27T20:39:06.722Z,100803.66
2022-11-27T20:41:33.895Z,100807.03
2022-11-27T20:44:04.647Z,100799.75
2022-11-27T20:46:33.489Z,100797.78
2022-11-27T20:49:04.236Z,100798.34
2022-11-27T20:51:35.764Z,100793.03
2022-11-27T20:54:09.247Z,100785.91
2022-11-27T20:56:38.151Z,100791.16
2022-11-27T20:59:07.765Z,100795.13
2022-11-27T21:01:36.969Z,100790.03
2022-11-27T21:04:09.535Z,100784.59
2022-11-27T21:06:43.823Z,100779.13
2022-11-27T21:09:13.701Z,100773.69
2022-11-27T21:11:42.812Z,100775.25
2022-11-27T21:14:14.023Z,100781.28
2022-11-27T21:16:48.297Z,100762.59
2022-11-27T21:19:25.275Z,100758.91
2022-11-27T21:21:56.026Z,100770.78
2022-11-27T21:24:27.817Z,100763.38
2022-11-27T21:26:56.403Z,100767.09
2022-11-27T21:29:25.779Z,100774.56
2022-11-27T21:31:55.293Z,100775.06
2022-11-27T21:34:24.685Z,100776.25
2022-11-27T21:36:51.906Z,100773.19
2022-11-27T21:39:22.473Z,100774.34
2022-11-27T21:41:53.829Z,100771.34
2022-11-27T21:44:22.635Z,100768.91
2022-11-27T21:46:51.348Z,100763.72
2022-11-27T21:49:21.153Z,100757.16
2022-11-27T21:51:53.483Z,100755.03
2022-11-27T21:54:24.592Z,100759.72
2022-11-27T21:56:52.607Z,100759.44
2022-11-27T21:59:20.478Z,100766.56
2022-11-27T22:01:48.159Z,100760.75
2022-11-27T22:04:15.989Z,100757.88
2022-11-27T22:06:45.139Z,100755.66
2022-11-27T22:09:15.701Z,100747.47
2022-11-27T22:11:45.667Z,100749.56
2022-11-27T22:14:15.927Z,100750.75
2022-11-27T22:16:46.672Z,100750.13
2022-11-27T22:19:17.001Z,100736.19
2022-11-27T22:21:45.357Z,100743.72
2022-11-27T22:24:18.755Z,100737.00
2022-11-27T22:26:49.001Z,100736.75
2022-11-27T22:29:16.701Z,100725.03
2022-11-27T22:31:44.016Z,100722.41
2022-11-27T22:34:11.413Z,100723.78
2022-11-27T22:36:39.232Z,100721.28
2022-11-27T22:39:08.884Z,100721.84
2022-11-27T22:41:39.605Z,100719.53
2022-11-27T22:44:18.506Z,100710.97
2022-11-27T22:46:47.543Z,100711.25
2022-11-27T22:49:18.719Z,100718.09
2022-11-27T22:51:46.973Z,100719.00
2022-11-27T22:54:17.074Z,100714.34
2022-11-27T22:56:46.315Z,100728.16
2022-11-27T23:02:06.434Z,100717.53
2022-11-27T23:04:36.174Z,100713.00
2022-11-27T23:07:05.830Z,100719.53
2022-11-27T23:09:33.780Z,100715.22
2022-11-27T23:12:01.041Z,100720.50
2022-11-27T23:14:28.404Z,100723.91
2022-11-27T23:16:55.756Z,100716.28
2022-11-27T23:19:23.097Z,100717.22
2022-11-27T23:21:50.357Z,100713.16
2022-11-27T23:24:17.608Z,100715.06
2022-11-27T23:26:46.064Z,100713.72
2022-11-27T23:29:14.384Z,100706.50
2022-11-27T23:31:41.975Z,100709.31
2022-11-27T23:34:15.334Z,100716.97
2022-11-27T23:36:43.284Z,100702.91
2022-11-27T23:39:13.820Z,100702.78
2022-11-27T23:41:41.650Z,100704.13
2022-11-27T23:44:09.601Z,100697.88
2022-11-27T23:46:36.821Z,100686.06
2022-11-27T23:49:04.032Z,100691.91
2022-11-27T23:51:32.801Z,100683.88
2022-11-27T23:54:00.893Z,100686.97
2022-11-27T23:56:31.709Z,100688.53
2022-11-27T23:59:00.511Z,100693.94
